sensor_id;sensor_type;location;lat;lon;timestamp;P1;P4;P2;P0;N10;N4;N25;N1;N05;TS
62742;SPS30;48791;51.636;6.010;2023-12-29T00:02:06;3.54;3.44;2.90;2.11;16.98;16.95;16.82;16.15;13.14;0.69
62742;SPS30;48791;51.636;6.010;2023-12-29T00:04:36;3.67;3.56;2.98;2.15;17.31;17.29;17.15;16.43;13.35;0.70
62742;SPS30;48791;51.636;6.010;2023-12-29T00:07:06;4.02;3.89;3.26;2.34;18.79;18.76;18.60;17.81;14.44;0.70
62742;SPS30;48791;51.636;6.010;2023-12-29T00:09:36;3.39;3.29;2.77;2.01;16.12;16.10;15.98;15.32;12.46;0.68
62742;SPS30;48791;51.636;6.010;2023-12-29T00:12:11;3.29;3.19;2.70;1.99;15.96;15.94;15.82;15.21;12.40;0.66
62742;SPS30;48791;51.636;6.010;2023-12-29T00:14:44;3.18;3.09;2.63;1.94;15.59;15.57;15.46;14.87;12.15;0.66
62742;SPS30;48791;51.636;6.010;2023-12-29T00:17:14;2.98;2.90;2.47;1.83;14.73;14.71;14.61;14.07;11.50;0.66
62742;SPS30;48791;51.636;6.010;2023-12-29T00:19:44;2.93;2.85;2.45;1.86;14.91;14.89;14.80;14.29;11.74;0.66
62742;SPS30;48791;51.636;6.010;2023-12-29T00:22:14;3.06;2.98;2.58;1.97;15.82;15.80;15.70;15.18;12.49;0.65
62742;SPS30;48791;51.636;6.010;2023-12-29T00:24:45;2.97;2.90;2.50;1.91;15.30;15.29;15.19;14.68;12.08;0.66
62742;SPS30;48791;51.636;6.010;2023-12-29T00:27:14;3.34;3.25;2.77;2.06;16.57;16.55;16.43;15.83;12.95;0.69
62742;SPS30;48791;51.636;6.010;2023-12-29T00:29:47;3.38;3.27;2.74;1.96;15.76;15.74;15.61;14.94;12.11;0.71
62742;SPS30;48791;51.636;6.010;2023-12-29T00:32:16;3.58;3.47;2.90;2.08;16.72;16.69;16.55;15.85;12.85;0.71
62742;SPS30;48791;51.636;6.010;2023-12-29T00:34:46;3.36;3.26;2.74;2.00;16.06;16.04;15.91;15.27;12.43;0.70
62742;SPS30;48791;51.636;6.010;2023-12-29T00:37:16;3.07;2.99;2.55;1.90;15.22;15.20;15.09;14.53;11.89;0.67
62742;SPS30;48791;51.636;6.010;2023-12-29T00:39:46;3.38;3.28;2.81;2.10;16.86;16.84;16.73;16.12;13.21;0.67
62742;SPS30;48791;51.636;6.010;2023-12-29T00:42:17;3.02;2.94;2.56;1.97;15.77;15.75;15.66;15.16;12.49;0.66
62742;SPS30;48791;51.636;6.010;2023-12-29T00:44:49;3.72;3.60;3.03;2.20;17.66;17.64;17.50;16.78;13.65;0.70
62742;SPS30;48791;51.636;6.010;2023-12-29T00:47:19;3.78;3.65;3.00;2.07;16.67;16.64;16.48;15.68;12.59;0.73
62742;SPS30;48791;51.636;6.010;2023-12-29T00:49:50;3.69;3.57;2.97;2.10;16.87;16.84;16.70;15.94;12.89;0.72
62742;SPS30;48791;51.636;6.010;2023-12-29T00:52:20;3.66;3.55;3.02;2.23;17.93;17.91;17.78;17.10;13.97;0.69
62742;SPS30;48791;51.636;6.010;2023-12-29T00:54:50;3.12;3.04;2.62;1.98;15.91;15.89;15.79;15.25;12.53;0.67
62742;SPS30;48791;51.636;6.010;2023-12-29T00:57:19;3.29;3.21;2.77;2.11;16.95;16.93;16.83;16.27;13.38;0.66
62742;SPS30;48791;51.636;6.010;2023-12-29T00:59:52;3.22;3.14;2.76;2.16;17.33;17.31;17.22;16.71;13.83;0.64
62742;SPS30;48791;51.636;6.010;2023-12-29T01:02:22;3.00;2.93;2.54;1.96;15.70;15.69;15.59;15.10;12.44;0.65
62742;SPS30;48791;51.636;6.010;2023-12-29T01:04:52;3.19;3.10;2.66;1.99;16.01;15.99;15.88;15.32;12.56;0.66
62742;SPS30;48791;51.636;6.010;2023-12-29T01:07:22;3.17;3.08;2.64;1.99;15.93;15.92;15.81;15.25;12.50;0.66
62742;SPS30;48791;51.636;6.010;2023-12-29T01:09:52;3.52;3.42;2.91;2.16;17.34;17.32;17.19;16.55;13.53;0.67
62742;SPS30;48791;51.636;6.010;2023-12-29T01:12:22;3.21;3.12;2.67;2.00;16.02;16.01;15.89;15.32;12.55;0.68
62742;SPS30;48791;51.636;6.010;2023-12-29T01:14:55;3.43;3.34;2.86;2.15;17.26;17.24;17.12;16.52;13.54;0.69
62742;SPS30;48791;51.636;6.010;2023-12-29T01:17:25;3.34;3.26;2.82;2.15;17.28;17.26;17.15;16.59;13.65;0.67
62742;SPS30;48791;51.636;6.010;2023-12-29T01:19:56;3.21;3.12;2.70;2.06;16.55;16.54;16.43;15.89;13.07;0.66
62742;SPS30;48791;51.636;6.010;2023-12-29T01:22:26;3.57;3.48;3.00;2.29;18.37;18.35;18.23;17.62;14.49;0.65
62742;SPS30;48791;51.636;6.010;2023-12-29T01:24:58;3.44;3.36;2.94;2.29;18.38;18.36;18.25;17.71;14.64;0.63
62742;SPS30;48791;51.636;6.010;2023-12-29T01:27:28;2.93;2.85;2.48;1.91;15.32;15.30;15.21;14.73;12.14;0.64
62742;SPS30;48791;51.636;6.010;2023-12-29T01:30:02;3.31;3.22;2.75;2.05;16.47;16.45;16.34;15.74;12.89;0.66
62742;SPS30;48791;51.636;6.010;2023-12-29T01:32:32;3.27;3.18;2.74;2.09;16.74;16.72;16.61;16.05;13.19;0.65
62742;SPS30;48791;51.636;6.010;2023-12-29T01:35:02;3.26;3.18;2.77;2.14;17.20;17.18;17.08;16.55;13.65;0.66
62742;SPS30;48791;51.636;6.010;2023-12-29T01:37:32;3.44;3.35;2.90;2.23;17.86;17.84;17.73;17.16;14.13;0.67
62742;SPS30;48791;51.636;6.010;2023-12-29T01:40:02;3.61;3.51;2.98;2.20;17.69;17.67;17.54;16.87;13.78;0.69
62742;SPS30;48791;51.636;6.010;2023-12-29T01:42:35;3.39;3.30;2.87;2.20;17.65;17.63;17.53;16.96;13.97;0.66
62742;SPS30;48791;51.636;6.010;2023-12-29T01:45:08;3.32;3.24;2.81;2.15;17.24;17.23;17.12;16.56;13.64;0.66
62742;SPS30;48791;51.636;6.010;2023-12-29T01:47:49;3.75;3.64;3.07;2.25;18.05;18.03;17.89;17.18;14.00;0.69
62742;SPS30;48791;51.636;6.010;2023-12-29T01:50:21;3.35;3.26;2.81;2.13;17.13;17.11;17.00;16.43;13.50;0.66
62742;SPS30;48791;51.636;6.010;2023-12-29T01:52:51;3.50;3.42;3.04;2.42;19.40;19.38;19.28;18.77;15.59;0.63
62742;SPS30;48791;51.636;6.010;2023-12-29T01:55:24;3.38;3.32;3.00;2.47;19.82;19.80;19.72;19.29;16.13;0.61
62742;SPS30;48791;51.636;6.010;2023-12-29T01:57:55;3.46;3.39;3.05;2.49;19.92;19.90;19.81;19.35;16.14;0.61
62742;SPS30;48791;51.636;6.010;2023-12-29T02:00:29;3.46;3.37;2.96;2.32;18.58;18.56;18.46;17.92;14.82;0.64
62742;SPS30;48791;51.636;6.010;2023-12-29T02:02:59;3.63;3.53;3.06;2.34;18.77;18.75;18.63;18.02;14.83;0.64
62742;SPS30;48791;51.636;6.010;2023-12-29T02:05:29;3.97;3.87;3.34;2.55;20.44;20.42;20.29;19.62;16.13;0.66
62742;SPS30;48791;51.636;6.010;2023-12-29T02:08:00;3.76;3.67;3.17;2.43;19.48;19.46;19.34;18.70;15.39;0.67
62742;SPS30;48791;51.636;6.010;2023-12-29T02:10:35;3.80;3.69;3.13;2.32;18.60;18.58;18.44;17.74;14.49;0.67
62742;SPS30;48791;51.636;6.010;2023-12-29T02:13:07;3.77;3.67;3.18;2.44;19.57;19.55;19.42;18.79;15.47;0.66
62742;SPS30;48791;51.636;6.010;2023-12-29T02:15:42;3.55;3.47;3.03;2.36;18.96;18.94;18.83;18.27;15.10;0.66
62742;SPS30;48791;51.636;6.010;2023-12-29T02:18:12;3.41;3.33;2.94;2.32;18.62;18.60;18.51;17.99;14.91;0.65
62742;SPS30;48791;51.636;6.010;2023-12-29T02:20:44;3.72;3.63;3.21;2.54;20.36;20.35;20.24;19.68;16.32;0.65
62742;SPS30;48791;51.636;6.010;2023-12-29T02:23:14;3.67;3.58;3.15;2.47;19.82;19.80;19.69;19.12;15.82;0.65
62742;SPS30;48791;51.636;6.010;2023-12-29T02:25:47;3.47;3.39;2.99;2.36;18.91;18.89;18.79;18.26;15.13;0.63
62742;SPS30;48791;51.636;6.010;2023-12-29T02:28:19;3.55;3.48;3.12;2.53;20.26;20.24;20.15;19.66;16.38;0.62
62742;SPS30;48791;51.636;6.010;2023-12-29T02:30:54;3.73;3.67;3.34;2.77;22.18;22.16;22.07;21.61;18.09;0.60
62742;SPS30;48791;51.636;6.010;2023-12-29T02:33:26;3.71;3.64;3.27;2.66;21.31;21.29;21.20;20.70;17.26;0.62
62742;SPS30;48791;51.636;6.010;2023-12-29T02:35:58;3.47;3.41;3.09;2.56;20.47;20.46;20.38;19.94;16.68;0.61
62742;SPS30;48791;51.636;6.010;2023-12-29T02:38:30;3.58;3.52;3.21;2.68;21.45;21.44;21.36;20.92;17.53;0.60
62742;SPS30;48791;51.636;6.010;2023-12-29T02:41:02;3.31;3.25;2.95;2.43;19.45;19.44;19.36;18.94;15.83;0.60
62742;SPS30;48791;51.636;6.010;2023-12-29T02:43:34;3.82;3.73;3.29;2.60;20.85;20.83;20.72;20.14;16.69;0.64
62742;SPS30;48791;51.636;6.010;2023-12-29T02:46:03;3.65;3.56;3.10;2.40;19.28;19.26;19.14;18.55;15.31;0.64
62742;SPS30;48791;51.636;6.010;2023-12-29T02:48:33;3.97;3.87;3.39;2.65;21.23;21.20;21.08;20.46;16.91;0.63
62742;SPS30;48791;51.636;6.010;2023-12-29T02:51:03;3.71;3.62;3.19;2.51;20.14;20.12;20.02;19.45;16.10;0.65
62742;SPS30;48791;51.636;6.010;2023-12-29T02:53:35;3.30;3.23;2.85;2.27;18.17;18.15;18.06;17.57;14.57;0.65
62742;SPS30;48791;51.636;6.010;2023-12-29T02:56:07;3.55;3.47;3.07;2.44;19.54;19.52;19.42;18.90;15.68;0.64
62742;SPS30;48791;51.636;6.010;2023-12-29T02:58:39;3.47;3.38;2.94;2.27;18.24;18.22;18.11;17.55;14.47;0.63
62742;SPS30;48791;51.636;6.010;2023-12-29T03:01:18;3.84;3.74;3.21;2.41;19.37;19.35;19.22;18.54;15.21;0.65
62742;SPS30;48791;51.636;6.010;2023-12-29T03:03:50;4.52;4.38;3.69;2.68;21.55;21.52;21.35;20.48;16.67;0.68
62742;SPS30;48791;51.636;6.010;2023-12-29T03:06:20;4.33;4.20;3.51;2.53;20.32;20.29;20.13;19.28;15.64;0.69
62742;SPS30;48791;51.636;6.010;2023-12-29T03:08:51;3.81;3.69;3.09;2.23;17.89;17.87;17.72;16.97;13.78;0.69
62742;SPS30;48791;51.636;6.010;2023-12-29T03:11:24;4.39;4.24;3.49;2.43;19.51;19.48;19.30;18.37;14.78;0.71
62742;SPS30;48791;51.636;6.010;2023-12-29T03:13:54;4.21;4.07;3.37;2.37;19.07;19.04;18.87;18.00;14.53;0.71
62742;SPS30;48791;51.636;6.010;2023-12-29T03:16:23;4.57;4.42;3.65;2.56;20.57;20.54;20.35;19.40;15.64;0.72
62742;SPS30;48791;51.636;6.010;2023-12-29T03:18:53;4.10;3.97;3.31;2.35;18.92;18.89;18.73;17.91;14.50;0.70
62742;SPS30;48791;51.636;6.010;2023-12-29T03:21:23;3.72;3.60;3.00;2.13;17.08;17.06;16.91;16.16;13.07;0.70
62742;SPS30;48791;51.636;6.010;2023-12-29T03:23:52;3.95;3.82;3.18;2.26;18.19;18.16;18.01;17.21;13.93;0.70
62742;SPS30;48791;51.636;6.010;2023-12-29T03:26:25;3.96;3.83;3.16;2.21;17.76;17.74;17.57;16.75;13.49;0.70
62742;SPS30;48791;51.636;6.010;2023-12-29T03:28:55;3.11;3.02;2.54;1.85;14.85;14.83;14.71;14.11;11.48;0.67
62742;SPS30;48791;51.636;6.010;2023-12-29T03:31:24;3.66;3.55;2.99;2.18;17.54;17.52;17.38;16.69;13.59;0.68
62742;SPS30;48791;51.636;6.010;2023-12-29T03:33:54;3.71;3.59;3.00;2.13;17.14;17.12;16.97;16.23;13.14;0.69
62742;SPS30;48791;51.636;6.010;2023-12-29T03:36:25;3.70;3.58;2.99;2.13;17.14;17.12;16.97;16.23;13.15;0.70
62742;SPS30;48791;51.636;6.010;2023-12-29T03:38:56;3.54;3.43;2.87;2.06;16.57;16.55;16.42;15.72;12.75;0.70
62742;SPS30;48791;51.636;6.010;2023-12-29T03:41:29;3.85;3.72;3.08;2.16;17.34;17.31;17.15;16.36;13.19;0.71
62742;SPS30;48791;51.636;6.010;2023-12-29T03:43:59;3.86;3.74;3.10;2.19;17.59;17.56;17.41;16.62;13.42;0.71
62742;SPS30;48791;51.636;6.010;2023-12-29T03:46:30;4.14;3.98;3.21;2.13;17.17;17.14;16.95;16.01;12.73;0.74
62742;SPS30;48791;51.636;6.010;2023-12-29T03:48:59;4.30;4.13;3.30;2.14;17.25;17.22;17.02;16.00;12.64;0.74
62742;SPS30;48791;51.636;6.010;2023-12-29T03:51:30;4.14;3.98;3.18;2.06;16.64;16.61;16.41;15.44;12.19;0.74
62742;SPS30;48791;51.636;6.010;2023-12-29T03:54:00;3.97;3.82;3.05;1.98;15.99;15.96;15.78;14.84;11.73;0.74
62742;SPS30;48791;51.636;6.010;2023-12-29T03:56:32;3.78;3.64;2.94;1.95;15.74;15.71;15.54;14.68;11.68;0.73
62742;SPS30;48791;51.636;6.010;2023-12-29T03:59:02;3.83;3.69;2.98;1.99;16.06;16.03;15.86;14.99;11.94;0.72
62742;SPS30;48791;51.636;6.010;2023-12-29T04:01:33;4.46;4.28;3.37;2.13;17.21;17.17;16.95;15.86;12.44;0.75
62742;SPS30;48791;51.636;6.010;2023-12-29T04:04:03;4.45;4.27;3.33;2.07;16.67;16.64;16.41;15.29;11.91;0.76
62742;SPS30;48791;51.636;6.010;2023-12-29T04:06:33;4.37;4.19;3.28;2.04;16.46;16.43;16.21;15.12;11.79;0.76
62742;SPS30;48791;51.636;6.010;2023-12-29T04:09:03;4.04;3.88;3.06;1.94;15.63;15.60;15.40;14.41;11.30;0.73
62742;SPS30;48791;51.636;6.010;2023-12-29T04:11:35;3.80;3.65;2.91;1.89;15.24;15.21;15.03;14.14;11.16;0.71
62742;SPS30;48791;51.636;6.010;2023-12-29T04:14:05;3.95;3.79;2.96;1.84;14.87;14.84;14.64;13.65;10.64;0.75
62742;SPS30;48791;51.636;6.010;2023-12-29T04:16:36;4.68;4.49;3.50;2.16;17.41;17.38;17.14;15.95;12.41;0.76
62742;SPS30;48791;51.636;6.010;2023-12-29T04:19:07;4.09;3.92;3.10;1.97;15.85;15.82;15.62;14.63;11.48;0.75
62742;SPS30;48791;51.636;6.010;2023-12-29T04:21:39;4.34;4.17;3.33;2.16;17.42;17.39;17.18;16.16;12.76;0.75
62742;SPS30;48791;51.636;6.010;2023-12-29T04:24:09;4.11;3.94;3.10;1.95;15.70;15.67;15.47;14.45;11.31;0.78
62742;SPS30;48791;51.636;6.010;2023-12-29T04:26:42;4.77;4.56;3.53;2.14;17.28;17.24;17.00;15.76;12.19;0.79
62742;SPS30;48791;51.636;6.010;2023-12-29T04:29:12;4.67;4.47;3.46;2.10;16.95;16.91;16.67;15.47;11.97;0.78
62742;SPS30;48791;51.636;6.010;2023-12-29T04:31:41;4.35;4.17;3.27;2.05;16.56;16.53;16.31;15.23;11.91;0.77
62742;SPS30;48791;51.636;6.010;2023-12-29T04:34:14;3.93;3.77;2.98;1.89;15.23;15.20;15.01;14.05;11.02;0.76
62742;SPS30;48791;51.636;6.010;2023-12-29T04:36:44;4.69;4.49;3.48;2.11;17.05;17.01;16.77;15.56;12.04;0.78
62742;SPS30;48791;51.636;6.010;2023-12-29T04:39:15;4.39;4.20;3.29;2.04;16.43;16.39;16.17;15.07;11.74;0.77
62742;SPS30;48791;51.636;6.010;2023-12-29T04:41:48;4.18;4.01;3.17;2.02;16.27;16.24;16.04;15.02;11.79;0.75
62742;SPS30;48791;51.636;6.010;2023-12-29T04:44:17;4.26;4.07;3.17;1.93;15.62;15.58;15.36;14.28;11.07;0.77
62742;SPS30;48791;51.636;6.010;2023-12-29T04:46:47;4.69;4.49;3.49;2.13;17.17;17.13;16.89;15.69;12.17;0.77
62742;SPS30;48791;51.636;6.010;2023-12-29T04:49:17;4.04;3.88;3.06;1.95;15.70;15.67;15.47;14.49;11.37;0.77
62742;SPS30;48791;51.636;6.010;2023-12-29T04:51:47;4.20;4.02;3.13;1.92;15.48;15.45;15.23;14.16;11.00;0.81
62742;SPS30;48791;51.636;6.010;2023-12-29T04:54:17;4.51;4.32;3.35;2.03;16.40;16.36;16.13;14.97;11.58;0.81
62742;SPS30;48791;51.636;6.010;2023-12-29T04:56:49;4.10;3.92;3.05;1.87;15.06;15.03;14.82;13.77;10.68;0.80
62742;SPS30;48791;51.636;6.010;2023-12-29T04:59:20;4.25;4.07;3.17;1.94;15.69;15.66;15.44;14.36;11.15;0.80
62742;SPS30;48791;51.636;6.010;2023-12-29T05:01:49;4.58;4.39;3.41;2.09;16.88;16.85;16.61;15.45;11.99;0.78
62742;SPS30;48791;51.636;6.010;2023-12-29T05:04:19;4.63;4.42;3.41;2.04;16.47;16.43;16.19;14.97;11.53;0.79
62742;SPS30;48791;51.636;6.010;2023-12-29T05:06:49;5.22;4.99;3.81;2.23;18.02;17.97;17.69;16.29;12.45;0.79
62742;SPS30;48791;51.636;6.010;2023-12-29T05:09:19;4.40;4.21;3.26;1.97;15.90;15.87;15.64;14.50;11.21;0.78
62742;SPS30;48791;51.636;6.010;2023-12-29T05:11:51;4.26;4.08;3.17;1.93;15.57;15.53;15.31;14.22;11.01;0.78
62742;SPS30;48791;51.636;6.010;2023-12-29T05:14:21;4.56;4.36;3.40;2.10;16.91;16.87;16.64;15.49;12.04;0.78
62742;SPS30;48791;51.636;6.010;2023-12-29T05:16:51;4.37;4.20;3.31;2.10;16.92;16.89;16.68;15.61;12.24;0.77
62742;SPS30;48791;51.636;6.010;2023-12-29T05:19:20;4.18;4.01;3.16;2.00;16.13;16.10;15.89;14.87;11.66;0.77
62742;SPS30;48791;51.636;6.010;2023-12-29T05:21:50;4.36;4.18;3.31;2.11;17.04;17.01;16.80;15.75;12.38;0.75
62742;SPS30;48791;51.636;6.010;2023-12-29T05:24:20;4.44;4.25;3.33;2.08;16.76;16.73;16.51;15.40;12.02;0.76
62742;SPS30;48791;51.636;6.010;2023-12-29T05:26:53;4.37;4.19;3.27;2.02;16.28;16.24;16.02;14.92;11.60;0.77
62742;SPS30;48791;51.636;6.010;2023-12-29T05:29:22;4.76;4.56;3.55;2.18;17.60;17.56;17.32;16.11;12.52;0.77
62742;SPS30;48791;51.636;6.010;2023-12-29T05:31:52;4.52;4.33;3.36;2.05;16.58;16.54;16.31;15.15;11.75;0.77
62742;SPS30;48791;51.636;6.010;2023-12-29T05:34:22;5.08;4.86;3.79;2.34;18.87;18.83;18.58;17.29;13.45;0.77
62742;SPS30;48791;51.636;6.010;2023-12-29T05:36:52;5.04;4.82;3.73;2.25;18.18;18.14;17.88;16.57;12.80;0.80
62742;SPS30;48791;51.636;6.010;2023-12-29T05:39:21;5.05;4.83;3.70;2.19;17.69;17.64;17.37;16.03;12.30;0.81
62742;SPS30;48791;51.636;6.010;2023-12-29T05:41:54;5.58;5.33;4.06;2.37;19.13;19.09;18.78;17.28;13.19;0.81
62742;SPS30;48791;51.636;6.010;2023-12-29T05:44:23;5.69;5.43;4.12;2.36;19.08;19.03;18.72;17.16;13.02;0.81
62742;SPS30;48791;51.636;6.010;2023-12-29T05:46:53;5.44;5.19;3.92;2.23;18.01;17.96;17.66;16.15;12.22;0.81
62742;SPS30;48791;51.636;6.010;2023-12-29T05:49:24;4.73;4.52;3.46;2.03;16.45;16.41;16.16;14.89;11.41;0.80
62742;SPS30;48791;51.636;6.010;2023-12-29T05:51:55;5.53;5.28;4.03;2.35;18.98;18.94;18.64;17.14;13.09;0.81
62742;SPS30;48791;51.636;6.010;2023-12-29T05:54:25;5.26;5.03;3.85;2.27;18.31;18.27;17.98;16.58;12.70;0.81
62742;SPS30;48791;51.636;6.010;2023-12-29T05:56:57;5.36;5.12;3.93;2.32;18.72;18.68;18.39;16.97;13.01;0.80
62742;SPS30;48791;51.636;6.010;2023-12-29T05:59:27;4.67;4.46;3.42;2.01;16.21;16.17;15.92;14.67;11.23;0.80
62742;SPS30;48791;51.636;6.010;2023-12-29T06:01:57;5.26;5.02;3.83;2.22;17.98;17.93;17.64;16.22;12.37;0.80
62742;SPS30;48791;51.636;6.010;2023-12-29T06:04:27;5.10;4.87;3.71;2.15;17.42;17.38;17.10;15.72;11.99;0.80
62742;SPS30;48791;51.636;6.010;2023-12-29T06:06:56;4.55;4.35;3.35;2.00;16.16;16.12;15.88;14.69;11.30;0.80
62742;SPS30;48791;51.636;6.010;2023-12-29T06:09:27;4.75;4.53;3.45;2.00;16.20;16.16;15.90;14.62;11.14;0.83
62742;SPS30;48791;51.636;6.010;2023-12-29T06:11:59;5.85;5.57;4.21;2.39;19.35;19.30;18.97;17.36;13.13;0.85
62742;SPS30;48791;51.636;6.010;2023-12-29T06:14:29;5.05;4.82;3.67;2.13;17.25;17.20;16.93;15.56;11.87;0.84
62742;SPS30;48791;51.636;6.010;2023-12-29T06:16:59;5.14;4.90;3.73;2.15;17.41;17.37;17.09;15.69;11.94;0.85
62742;SPS30;48791;51.636;6.010;2023-12-29T06:19:28;4.85;4.62;3.46;1.92;15.53;15.49;15.21;13.84;10.38;0.85
62742;SPS30;48791;51.636;6.010;2023-12-29T06:21:59;5.22;4.97;3.71;2.03;16.44;16.39;16.09;14.60;10.89;0.85
62742;SPS30;48791;51.636;6.010;2023-12-29T06:24:29;5.89;5.60;4.16;2.26;18.34;18.28;17.94;16.25;12.09;0.84
62742;SPS30;48791;51.636;6.010;2023-12-29T06:27:01;4.80;4.56;3.38;1.81;14.72;14.67;14.39;13.00;9.63;0.85
62742;SPS30;48791;51.636;6.010;2023-12-29T06:29:31;5.56;5.28;3.88;2.04;16.59;16.54;16.21;14.56;10.70;0.87
62742;SPS30;48791;51.636;6.010;2023-12-29T06:32:02;5.76;5.46;4.00;2.07;16.81;16.76;16.41;14.69;10.72;0.89
62742;SPS30;48791;51.636;6.010;2023-12-29T06:34:33;5.41;5.13;3.77;1.97;16.03;15.98;15.65;14.05;10.30;0.87
62742;SPS30;48791;51.636;6.010;2023-12-29T06:37:03;5.90;5.60;4.09;2.11;17.15;17.09;16.73;14.96;10.90;0.89
62742;SPS30;48791;51.636;6.010;2023-12-29T06:39:33;5.48;5.20;3.80;1.97;15.96;15.90;15.57;13.93;10.15;0.89
62742;SPS30;48791;51.636;6.010;2023-12-29T06:42:05;6.09;5.78;4.21;2.14;17.41;17.35;16.98;15.13;10.96;0.90
62742;SPS30;48791;51.636;6.010;2023-12-29T06:44:35;5.74;5.45;4.01;2.11;17.15;17.09;16.75;15.05;11.06;0.88
62742;SPS30;48791;51.636;6.010;2023-12-29T06:47:05;5.57;5.30;3.98;2.21;17.89;17.84;17.52;15.95;11.97;0.84
62742;SPS30;48791;51.636;6.010;2023-12-29T06:49:34;5.19;4.95;3.75;2.14;17.30;17.25;16.96;15.53;11.77;0.83
62742;SPS30;48791;51.636;6.010;2023-12-29T06:52:04;4.69;4.47;3.36;1.89;15.28;15.23;14.97;13.66;10.29;0.84
62742;SPS30;48791;51.636;6.010;2023-12-29T06:54:35;5.41;5.15;3.85;2.12;17.21;17.16;16.85;15.31;11.46;0.86
62742;SPS30;48791;51.636;6.010;2023-12-29T06:57:09;4.82;4.59;3.43;1.89;15.31;15.26;14.99;13.62;10.19;0.86
62742;SPS30;48791;51.636;6.010;2023-12-29T06:59:41;5.10;4.85;3.62;1.97;15.99;15.94;15.65;14.18;10.57;0.87
62742;SPS30;48791;51.636;6.010;2023-12-29T07:02:11;4.74;4.51;3.37;1.85;14.97;14.93;14.66;13.30;9.94;0.86
62742;SPS30;48791;51.636;6.010;2023-12-29T07:04:41;5.10;4.86;3.66;2.06;16.68;16.63;16.35;14.92;11.25;0.85
62742;SPS30;48791;51.636;6.010;2023-12-29T07:07:12;4.93;4.70;3.52;1.95;15.78;15.74;15.45;14.06;10.54;0.86
62742;SPS30;48791;51.636;6.010;2023-12-29T07:09:47;4.47;4.27;3.24;1.85;15.00;14.96;14.72;13.49;10.24;0.82
62742;SPS30;48791;51.636;6.010;2023-12-29T07:12:19;4.11;3.93;3.00;1.76;14.21;14.17;13.95;12.85;9.82;0.81
62742;SPS30;48791;51.636;6.010;2023-12-29T07:14:49;4.16;3.98;3.07;1.83;14.81;14.78;14.56;13.47;10.37;0.80
62742;SPS30;48791;51.636;6.010;2023-12-29T07:17:20;3.85;3.69;2.88;1.79;14.43;14.39;14.20;13.23;10.31;0.77
62742;SPS30;48791;51.636;6.010;2023-12-29T07:19:49;4.00;3.84;3.04;1.94;15.62;15.59;15.40;14.43;11.34;0.76
62742;SPS30;48791;51.636;6.010;2023-12-29T07:22:19;4.03;3.87;3.05;1.94;15.65;15.62;15.42;14.44;11.34;0.75
62742;SPS30;48791;51.636;6.010;2023-12-29T07:24:49;4.14;3.97;3.12;1.97;15.88;15.84;15.64;14.62;11.45;0.76
62742;SPS30;48791;51.636;6.010;2023-12-29T07:27:21;3.87;3.71;2.91;1.82;14.69;14.66;14.47;13.51;10.56;0.77
62742;SPS30;48791;51.636;6.010;2023-12-29T07:29:51;3.61;3.47;2.78;1.82;14.69;14.66;14.49;13.65;10.81;0.74
62742;SPS30;48791;51.636;6.010;2023-12-29T07:32:21;3.33;3.21;2.60;1.75;14.10;14.08;13.93;13.19;10.52;0.72
62742;SPS30;48791;51.636;6.010;2023-12-29T07:34:50;3.35;3.24;2.65;1.83;14.69;14.67;14.53;13.81;11.08;0.71
62742;SPS30;48791;51.636;6.010;2023-12-29T07:37:20;3.72;3.59;2.93;2.00;16.12;16.09;15.93;15.12;12.11;0.72
62742;SPS30;48791;51.636;6.010;2023-12-29T07:39:50;3.74;3.61;2.96;2.03;16.32;16.29;16.14;15.33;12.29;0.72
62742;SPS30;48791;51.636;6.010;2023-12-29T07:42:22;4.35;4.20;3.42;2.32;18.69;18.66;18.47;17.51;14.01;0.71
62742;SPS30;48791;51.636;6.010;2023-12-29T07:44:53;4.35;4.20;3.45;2.37;19.10;19.07;18.89;17.96;14.41;0.71
62742;SPS30;48791;51.636;6.010;2023-12-29T07:47:23;4.18;4.05;3.40;2.46;19.76;19.73;19.57;18.76;15.24;0.69
62742;SPS30;48791;51.636;6.010;2023-12-29T07:49:53;4.00;3.89;3.30;2.43;19.54;19.52;19.37;18.63;15.21;0.67
62742;SPS30;48791;51.636;6.010;2023-12-29T07:52:23;4.26;4.15;3.56;2.69;21.58;21.56;21.41;20.67;16.96;0.66
62742;SPS30;48791;51.636;6.010;2023-12-29T07:54:53;3.92;3.82;3.32;2.56;20.56;20.54;20.42;19.77;16.31;0.63
62742;SPS30;48791;51.636;6.010;2023-12-29T07:57:25;3.43;3.35;2.94;2.31;18.54;18.52;18.42;17.89;14.81;0.62
62742;SPS30;48791;51.636;6.010;2023-12-29T07:59:55;3.58;3.51;3.12;2.50;20.01;19.99;19.90;19.38;16.10;0.62
62742;SPS30;48791;51.636;6.010;2023-12-29T08:02:25;3.33;3.26;2.91;2.34;18.77;18.75;18.66;18.19;15.14;0.60
62742;SPS30;48791;51.636;6.010;2023-12-29T08:04:54;3.51;3.44;3.06;2.46;19.70;19.68;19.59;19.08;15.87;0.61
62742;SPS30;48791;51.636;6.010;2023-12-29T08:07:24;3.07;3.00;2.67;2.13;17.04;17.03;16.94;16.49;13.69;0.62
62742;SPS30;48791;51.636;6.010;2023-12-29T08:09:54;3.10;3.03;2.67;2.10;16.85;16.84;16.75;16.27;13.48;0.62
62742;SPS30;48791;51.636;6.010;2023-12-29T08:12:26;3.16;3.09;2.71;2.12;17.03;17.02;16.92;16.43;13.59;0.61
62742;SPS30;48791;51.636;6.010;2023-12-29T08:14:56;3.04;2.97;2.62;2.07;16.60;16.58;16.50;16.04;13.29;0.61
62742;SPS30;48791;51.636;6.010;2023-12-29T08:17:26;3.35;3.26;2.85;2.21;17.72;17.70;17.60;17.06;14.08;0.62
62742;SPS30;48791;51.636;6.010;2023-12-29T08:19:56;3.19;3.11;2.71;2.10;16.83;16.81;16.71;16.19;13.36;0.63
62742;SPS30;48791;51.636;6.010;2023-12-29T08:22:30;3.16;3.07;2.61;1.94;15.59;15.57;15.46;14.88;12.17;0.66
62742;SPS30;48791;51.636;6.010;2023-12-29T08:25:00;3.31;3.21;2.74;2.05;16.46;16.44;16.32;15.73;12.88;0.67
62742;SPS30;48791;51.636;6.010;2023-12-29T08:27:33;3.06;2.97;2.55;1.91;15.37;15.35;15.25;14.71;12.06;0.67
62742;SPS30;48791;51.636;6.010;2023-12-29T08:30:03;3.12;3.03;2.60;1.96;15.70;15.68;15.58;15.02;12.32;0.66
62742;SPS30;48791;51.636;6.010;2023-12-29T08:32:33;3.06;2.98;2.58;1.97;15.77;15.75;15.65;15.13;12.44;0.65
62742;SPS30;48791;51.636;6.010;2023-12-29T08:35:03;2.82;2.75;2.41;1.87;14.99;14.98;14.89;14.44;11.92;0.62
62742;SPS30;48791;51.636;6.010;2023-12-29T08:37:33;2.95;2.88;2.53;1.97;15.83;15.82;15.73;15.27;12.62;0.62
62742;SPS30;48791;51.636;6.010;2023-12-29T08:40:03;3.16;3.08;2.72;2.14;17.19;17.17;17.08;16.60;13.75;0.62
62742;SPS30;48791;51.636;6.010;2023-12-29T08:42:36;2.70;2.65;2.35;1.88;15.07;15.05;14.98;14.59;12.12;0.61
62742;SPS30;48791;51.636;6.010;2023-12-29T08:45:06;2.58;2.52;2.26;1.82;14.58;14.57;14.50;14.14;11.77;0.60
62742;SPS30;48791;51.636;6.010;2023-12-29T08:47:35;2.45;2.41;2.21;1.85;14.84;14.83;14.78;14.49;12.16;0.58
62742;SPS30;48791;51.636;6.010;2023-12-29T08:50:06;2.49;2.44;2.21;1.81;14.53;14.52;14.46;14.14;11.81;0.59
62742;SPS30;48791;51.636;6.010;2023-12-29T08:52:36;2.12;2.09;1.92;1.62;12.94;12.93;12.89;12.65;10.62;0.57
62742;SPS30;48791;51.636;6.010;2023-12-29T08:55:07;2.26;2.22;2.04;1.72;13.74;13.73;13.69;13.42;11.26;0.59
62742;SPS30;48791;51.636;6.010;2023-12-29T08:57:39;2.14;2.10;1.91;1.58;12.62;12.62;12.57;12.29;10.28;0.61
62742;SPS30;48791;51.636;6.010;2023-12-29T09:00:10;2.04;2.01;1.86;1.57;12.60;12.59;12.55;12.32;10.36;0.59
62742;SPS30;48791;51.636;6.010;2023-12-29T09:02:40;2.21;2.18;2.00;1.69;13.51;13.50;13.45;13.20;11.08;0.61
62742;SPS30;48791;51.636;6.010;2023-12-29T09:05:13;2.10;2.07;1.89;1.57;12.58;12.58;12.53;12.27;10.28;0.61
62742;SPS30;48791;51.636;6.010;2023-12-29T09:07:42;2.06;2.02;1.86;1.57;12.56;12.55;12.51;12.28;10.31;0.60
62742;SPS30;48791;51.636;6.010;2023-12-29T09:10:12;2.04;2.01;1.85;1.57;12.60;12.60;12.55;12.33;10.37;0.58
62742;SPS30;48791;51.636;6.010;2023-12-29T09:12:45;1.78;1.75;1.63;1.40;11.18;11.18;11.15;10.96;9.23;0.59
62742;SPS30;48791;51.636;6.010;2023-12-29T09:15:12;1.92;1.90;1.78;1.55;12.38;12.38;12.34;12.16;10.27;0.57
62742;SPS30;48791;51.636;6.010;2023-12-29T09:17:42;1.71;1.69;1.60;1.40;11.17;11.17;11.14;10.99;9.29;0.57
62742;SPS30;48791;51.636;6.010;2023-12-29T09:20:12;1.60;1.58;1.48;1.27;10.18;10.17;10.14;9.98;8.41;0.58
62742;SPS30;48791;51.636;6.010;2023-12-29T09:22:42;1.73;1.70;1.57;1.32;10.58;10.58;10.54;10.34;8.69;0.59
62742;SPS30;48791;51.636;6.010;2023-12-29T09:25:11;1.66;1.63;1.49;1.25;9.99;9.98;9.95;9.75;8.17;0.59